sensor_id;sensor_type;location;lat;lon;timestamp;P1;durP1;ratioP1;P2;durP2;ratioP2
5847;SDS011;8756;49.29324300;8.70599800;2022-09-01T00:02:18;12.90;;;4.40;;
5847;SDS011;8756;49.29324300;8.70599800;2022-09-01T00:04:44;13.03;;;4.87;;
5847;SDS011;8756;49.29324300;8.70599800;2022-09-01T00:07:11;12.90;;;4.33;;
5847;SDS011;8756;49.29324300;8.70599800;2022-09-01T00:09:38;13.00;;;4.30;;
5847;SDS011;8756;49.29324300;8.70599800;2022-09-01T00:12:05;12.40;;;4.70;;
5847;SDS011;8756;49.29324300;8.70599800;2022-09-01T00:14:34;14.83;;;4.83;;
5847;SDS011;8756;49.29324300;8.70599800;2022-09-01T00:17:03;13.80;;;5.03;;
5847;SDS011;8756;49.29324300;8.70599800;2022-09-01T00:19:30;13.80;;;5.00;;
5847;SDS011;8756;49.29324300;8.70599800;2022-09-01T00:21:57;12.33;;;4.47;;
5847;SDS011;8756;49.29324300;8.70599800;2022-09-01T00:24:24;13.00;;;5.37;;
5847;SDS011;8756;49.29324300;8.70599800;2022-09-01T00:26:50;12.77;;;5.13;;
5847;SDS011;8756;49.29324300;8.70599800;2022-09-01T00:29:16;14.30;;;5.00;;
5847;SDS011;8756;49.29324300;8.70599800;2022-09-01T00:31:42;15.40;;;5.80;;
5847;SDS011;8756;49.29324300;8.70599800;2022-09-01T00:34:08;12.17;;;5.00;;
5847;SDS011;8756;49.29324300;8.70599800;2022-09-01T00:36:34;12.97;;;4.83;;
5847;SDS011;8756;49.29324300;8.70599800;2022-09-01T00:39:00;14.70;;;4.40;;
5847;SDS011;8756;49.29324300;8.70599800;2022-09-01T00:41:28;12.43;;;4.67;;
5847;SDS011;8756;49.29324300;8.70599800;2022-09-01T00:43:56;12.83;;;5.13;;
5847;SDS011;8756;49.29324300;8.70599800;2022-09-01T00:46:25;12.40;;;5.27;;
5847;SDS011;8756;49.29324300;8.70599800;2022-09-01T00:49:05;12.80;;;5.30;;
5847;SDS011;8756;49.29324300;8.70599800;2022-09-01T00:51:35;13.50;;;5.80;;
5847;SDS011;8756;49.29324300;8.70599800;2022-09-01T00:54:02;14.40;;;5.53;;
5847;SDS011;8756;49.29324300;8.70599800;2022-09-01T00:56:31;12.60;;;4.70;;
5847;SDS011;8756;49.29324300;8.70599800;2022-09-01T00:58:59;14.57;;;5.53;;
5847;SDS011;8756;49.29324300;8.70599800;2022-09-01T01:01:26;13.30;;;5.40;;
5847;SDS011;8756;49.29324300;8.70599800;2022-09-01T01:03:52;13.53;;;5.43;;
5847;SDS011;8756;49.29324300;8.70599800;2022-09-01T01:06:18;13.67;;;5.43;;
5847;SDS011;8756;49.29324300;8.70599800;2022-09-01T01:08:48;14.13;;;5.77;;
5847;SDS011;8756;49.29324300;8.70599800;2022-09-01T01:11:22;12.87;;;5.60;;
5847;SDS011;8756;49.29324300;8.70599800;2022-09-01T01:13:55;13.00;;;5.90;;
5847;SDS011;8756;49.29324300;8.70599800;2022-09-01T01:16:41;14.00;;;5.37;;
5847;SDS011;8756;49.29324300;8.70599800;2022-09-01T01:19:17;14.97;;;6.20;;
5847;SDS011;8756;49.29324300;8.70599800;2022-09-01T01:28:04;14.93;;;6.53;;
5847;SDS011;8756;49.29324300;8.70599800;2022-09-01T01:30:33;14.07;;;6.17;;
5847;SDS011;8756;49.29324300;8.70599800;2022-09-01T01:32:59;13.60;;;5.77;;
5847;SDS011;8756;49.29324300;8.70599800;2022-09-01T01:35:25;13.17;;;5.87;;
5847;SDS011;8756;49.29324300;8.70599800;2022-09-01T01:37:51;13.30;;;6.13;;
5847;SDS011;8756;49.29324300;8.70599800;2022-09-01T01:40:18;15.00;;;5.80;;
5847;SDS011;8756;49.29324300;8.70599800;2022-09-01T01:42:47;13.20;;;5.93;;
5847;SDS011;8756;49.29324300;8.70599800;2022-09-01T01:45:16;14.47;;;6.67;;
5847;SDS011;8756;49.29324300;8.70599800;2022-09-01T01:47:45;13.50;;;6.60;;
5847;SDS011;8756;49.29324300;8.70599800;2022-09-01T01:50:15;12.70;;;5.87;;
5847;SDS011;8756;49.29324300;8.70599800;2022-09-01T01:52:41;13.57;;;6.80;;
5847;SDS011;8756;49.29324300;8.70599800;2022-09-01T01:55:07;15.50;;;6.90;;
5847;SDS011;8756;49.29324300;8.70599800;2022-09-01T01:57:37;15.33;;;6.40;;
5847;SDS011;8756;49.29324300;8.70599800;2022-09-01T02:00:04;14.23;;;5.63;;
5847;SDS011;8756;49.29324300;8.70599800;2022-09-01T02:02:30;13.27;;;5.50;;
5847;SDS011;8756;49.29324300;8.70599800;2022-09-01T02:04:56;13.43;;;6.20;;
5847;SDS011;8756;49.29324300;8.70599800;2022-09-01T02:07:23;14.53;;;6.77;;
5847;SDS011;8756;49.29324300;8.70599800;2022-09-01T02:09:48;14.83;;;6.60;;
5847;SDS011;8756;49.29324300;8.70599800;2022-09-01T02:12:14;13.93;;;6.37;;
5847;SDS011;8756;49.29324300;8.70599800;2022-09-01T02:14:43;13.67;;;6.30;;
5847;SDS011;8756;49.29324300;8.70599800;2022-09-01T02:17:09;14.27;;;6.57;;
5847;SDS011;8756;49.29324300;8.70599800;2022-09-01T02:19:34;14.50;;;6.67;;
5847;SDS011;8756;49.29324300;8.70599800;2022-09-01T02:22:06;14.70;;;6.40;;
5847;SDS011;8756;49.29324300;8.70599800;2022-09-01T02:24:36;13.80;;;7.00;;
5847;SDS011;8756;49.29324300;8.70599800;2022-09-01T02:27:02;14.77;;;6.50;;
5847;SDS011;8756;49.29324300;8.70599800;2022-09-01T02:29:29;15.60;;;6.23;;
5847;SDS011;8756;49.29324300;8.70599800;2022-09-01T02:31:55;16.60;;;6.33;;
5847;SDS011;8756;49.29324300;8.70599800;2022-09-01T02:34:22;14.47;;;6.50;;
5847;SDS011;8756;49.29324300;8.70599800;2022-09-01T02:36:50;14.60;;;6.63;;
5847;SDS011;8756;49.29324300;8.70599800;2022-09-01T02:39:21;12.83;;;5.60;;
5847;SDS011;8756;49.29324300;8.70599800;2022-09-01T02:41:50;13.50;;;6.60;;
5847;SDS011;8756;49.29324300;8.70599800;2022-09-01T02:44:16;14.83;;;7.60;;
5847;SDS011;8756;49.29324300;8.70599800;2022-09-01T02:46:43;16.33;;;7.37;;
5847;SDS011;8756;49.29324300;8.70599800;2022-09-01T02:49:13;15.63;;;6.30;;
5847;SDS011;8756;49.29324300;8.70599800;2022-09-01T02:51:42;15.63;;;6.73;;
5847;SDS011;8756;49.29324300;8.70599800;2022-09-01T02:54:11;14.77;;;6.23;;
5847;SDS011;8756;49.29324300;8.70599800;2022-09-01T02:56:41;15.67;;;6.83;;
5847;SDS011;8756;49.29324300;8.70599800;2022-09-01T02:59:12;14.77;;;7.40;;
5847;SDS011;8756;49.29324300;8.70599800;2022-09-01T03:01:39;14.23;;;6.63;;
5847;SDS011;8756;49.29324300;8.70599800;2022-09-01T03:04:06;17.30;;;6.83;;
5847;SDS011;8756;49.29324300;8.70599800;2022-09-01T03:06:34;15.30;;;6.93;;
5847;SDS011;8756;49.29324300;8.70599800;2022-09-01T03:09:02;15.90;;;7.00;;
5847;SDS011;8756;49.29324300;8.70599800;2022-09-01T03:11:33;14.40;;;7.20;;
5847;SDS011;8756;49.29324300;8.70599800;2022-09-01T03:14:01;15.73;;;6.70;;
5847;SDS011;8756;49.29324300;8.70599800;2022-09-01T03:16:28;14.80;;;7.50;;
5847;SDS011;8756;49.29324300;8.70599800;2022-09-01T03:18:57;14.83;;;7.43;;
5847;SDS011;8756;49.29324300;8.70599800;2022-09-01T03:21:23;17.37;;;7.40;;
5847;SDS011;8756;49.29324300;8.70599800;2022-09-01T03:23:50;14.00;;;6.83;;
5847;SDS011;8756;49.29324300;8.70599800;2022-09-01T03:26:17;17.37;;;7.83;;
5847;SDS011;8756;49.29324300;8.70599800;2022-09-01T03:28:46;16.83;;;7.07;;
5847;SDS011;8756;49.29324300;8.70599800;2022-09-01T03:31:13;15.40;;;7.43;;
5847;SDS011;8756;49.29324300;8.70599800;2022-09-01T03:33:40;14.23;;;6.70;;
5847;SDS011;8756;49.29324300;8.70599800;2022-09-01T03:36:06;15.97;;;7.43;;
5847;SDS011;8756;49.29324300;8.70599800;2022-09-01T03:38:33;14.40;;;7.17;;
5847;SDS011;8756;49.29324300;8.70599800;2022-09-01T03:41:00;18.20;;;7.60;;
5847;SDS011;8756;49.29324300;8.70599800;2022-09-01T03:43:28;14.30;;;6.43;;
5847;SDS011;8756;49.29324300;8.70599800;2022-09-01T03:45:56;17.00;;;7.47;;
5847;SDS011;8756;49.29324300;8.70599800;2022-09-01T03:48:26;18.30;;;7.50;;
5847;SDS011;8756;49.29324300;8.70599800;2022-09-01T03:50:54;15.70;;;7.43;;
5847;SDS011;8756;49.29324300;8.70599800;2022-09-01T03:53:24;17.07;;;7.27;;
5847;SDS011;8756;49.29324300;8.70599800;2022-09-01T03:55:51;14.40;;;6.90;;
5847;SDS011;8756;49.29324300;8.70599800;2022-09-01T03:58:18;14.70;;;7.10;;
5847;SDS011;8756;49.29324300;8.70599800;2022-09-01T04:00:47;14.40;;;7.00;;
5847;SDS011;8756;49.29324300;8.70599800;2022-09-01T04:03:19;14.40;;;6.73;;
5847;SDS011;8756;49.29324300;8.70599800;2022-09-01T04:05:47;13.80;;;6.90;;
5847;SDS011;8756;49.29324300;8.70599800;2022-09-01T04:08:13;16.20;;;8.13;;
5847;SDS011;8756;49.29324300;8.70599800;2022-09-01T04:10:44;15.10;;;7.60;;
5847;SDS011;8756;49.29324300;8.70599800;2022-09-01T04:13:18;17.87;;;7.53;;
5847;SDS011;8756;49.29324300;8.70599800;2022-09-01T04:15:46;15.30;;;7.63;;
5847;SDS011;8756;49.29324300;8.70599800;2022-09-01T04:18:12;15.97;;;8.13;;
5847;SDS011;8756;49.29324300;8.70599800;2022-09-01T04:20:45;14.60;;;6.90;;
5847;SDS011;8756;49.29324300;8.70599800;2022-09-01T04:23:22;16.43;;;7.00;;
5847;SDS011;8756;49.29324300;8.70599800;2022-09-01T04:26:01;15.40;;;7.17;;
5847;SDS011;8756;49.29324300;8.70599800;2022-09-01T04:28:35;16.33;;;7.43;;
5847;SDS011;8756;49.29324300;8.70599800;2022-09-01T04:31:04;15.87;;;8.10;;
5847;SDS011;8756;49.29324300;8.70599800;2022-09-01T04:33:34;16.10;;;8.07;;
5847;SDS011;8756;49.29324300;8.70599800;2022-09-01T04:36:26;16.20;;;7.97;;
5847;SDS011;8756;49.29324300;8.70599800;2022-09-01T04:38:59;14.90;;;7.60;;
5847;SDS011;8756;49.29324300;8.70599800;2022-09-01T04:41:30;17.20;;;7.20;;
5847;SDS011;8756;49.29324300;8.70599800;2022-09-01T04:43:58;16.07;;;7.50;;
5847;SDS011;8756;49.29324300;8.70599800;2022-09-01T04:46:28;15.13;;;7.67;;
5847;SDS011;8756;49.29324300;8.70599800;2022-09-01T04:48:57;18.60;;;9.07;;
5847;SDS011;8756;49.29324300;8.70599800;2022-09-01T04:51:23;15.10;;;7.23;;
5847;SDS011;8756;49.29324300;8.70599800;2022-09-01T04:53:52;18.13;;;8.47;;
5847;SDS011;8756;49.29324300;8.70599800;2022-09-01T04:56:22;16.23;;;7.77;;
5847;SDS011;8756;49.29324300;8.70599800;2022-09-01T04:58:49;15.10;;;7.60;;
5847;SDS011;8756;49.29324300;8.70599800;2022-09-01T05:01:20;17.40;;;8.83;;
5847;SDS011;8756;49.29324300;8.70599800;2022-09-01T05:03:48;15.30;;;7.77;;
5847;SDS011;8756;49.29324300;8.70599800;2022-09-01T05:06:21;15.33;;;8.03;;
5847;SDS011;8756;49.29324300;8.70599800;2022-09-01T05:08:50;15.87;;;7.57;;
5847;SDS011;8756;49.29324300;8.70599800;2022-09-01T05:11:16;14.80;;;7.53;;
5847;SDS011;8756;49.29324300;8.70599800;2022-09-01T05:13:45;16.50;;;7.50;;
5847;SDS011;8756;49.29324300;8.70599800;2022-09-01T05:16:14;14.43;;;7.10;;
5847;SDS011;8756;49.29324300;8.70599800;2022-09-01T05:18:43;16.13;;;7.97;;
5847;SDS011;8756;49.29324300;8.70599800;2022-09-01T05:21:13;15.93;;;7.83;;
5847;SDS011;8756;49.29324300;8.70599800;2022-09-01T05:23:42;16.57;;;8.30;;
5847;SDS011;8756;49.29324300;8.70599800;2022-09-01T05:26:18;15.50;;;7.73;;
5847;SDS011;8756;49.29324300;8.70599800;2022-09-01T05:28:49;14.27;;;7.50;;
5847;SDS011;8756;49.29324300;8.70599800;2022-09-01T05:31:19;17.27;;;8.37;;
5847;SDS011;8756;49.29324300;8.70599800;2022-09-01T05:33:47;15.33;;;7.83;;
5847;SDS011;8756;49.29324300;8.70599800;2022-09-01T05:36:15;17.50;;;7.63;;
5847;SDS011;8756;49.29324300;8.70599800;2022-09-01T05:38:44;16.80;;;8.20;;
5847;SDS011;8756;49.29324300;8.70599800;2022-09-01T05:41:12;16.50;;;8.00;;
5847;SDS011;8756;49.29324300;8.70599800;2022-09-01T05:43:46;16.90;;;8.47;;
5847;SDS011;8756;49.29324300;8.70599800;2022-09-01T05:46:14;16.93;;;8.80;;
5847;SDS011;8756;49.29324300;8.70599800;2022-09-01T05:48:43;15.00;;;7.67;;
5847;SDS011;8756;49.29324300;8.70599800;2022-09-01T05:51:10;16.50;;;8.23;;
5847;SDS011;8756;49.29324300;8.70599800;2022-09-01T05:53:45;14.37;;;7.20;;
5847;SDS011;8756;49.29324300;8.70599800;2022-09-01T05:56:19;17.87;;;9.13;;
5847;SDS011;8756;49.29324300;8.70599800;2022-09-01T05:58:45;15.73;;;7.70;;
5847;SDS011;8756;49.29324300;8.70599800;2022-09-01T06:01:18;18.30;;;9.00;;
5847;SDS011;8756;49.29324300;8.70599800;2022-09-01T06:03:49;14.90;;;7.50;;
5847;SDS011;8756;49.29324300;8.70599800;2022-09-01T06:06:22;17.70;;;9.20;;
5847;SDS011;8756;49.29324300;8.70599800;2022-09-01T06:08:51;16.40;;;7.97;;
5847;SDS011;8756;49.29324300;8.70599800;2022-09-01T06:11:21;15.17;;;8.13;;
5847;SDS011;8756;49.29324300;8.70599800;2022-09-01T06:13:48;15.83;;;8.47;;
5847;SDS011;8756;49.29324300;8.70599800;2022-09-01T06:16:16;15.87;;;8.47;;
5847;SDS011;8756;49.29324300;8.70599800;2022-09-01T06:18:43;17.20;;;7.70;;
5847;SDS011;8756;49.29324300;8.70599800;2022-09-01T06:21:10;15.50;;;8.53;;
5847;SDS011;8756;49.29324300;8.70599800;2022-09-01T06:23:39;16.67;;;8.53;;
5847;SDS011;8756;49.29324300;8.70599800;2022-09-01T06:26:07;15.83;;;8.40;;
5847;SDS011;8756;49.29324300;8.70599800;2022-09-01T06:28:41;15.80;;;7.63;;
5847;SDS011;8756;49.29324300;8.70599800;2022-09-01T06:31:07;15.80;;;7.80;;
5847;SDS011;8756;49.29324300;8.70599800;2022-09-01T06:33:33;15.17;;;8.53;;
5847;SDS011;8756;49.29324300;8.70599800;2022-09-01T06:36:03;16.90;;;8.30;;
5847;SDS011;8756;49.29324300;8.70599800;2022-09-01T06:38:29;15.67;;;8.20;;
5847;SDS011;8756;49.29324300;8.70599800;2022-09-01T06:41:02;15.30;;;8.07;;
5847;SDS011;8756;49.29324300;8.70599800;2022-09-01T06:43:30;19.60;;;9.20;;
5847;SDS011;8756;49.29324300;8.70599800;2022-09-01T06:45:59;18.33;;;9.27;;
5847;SDS011;8756;49.29324300;8.70599800;2022-09-01T06:48:26;17.80;;;10.20;;
5847;SDS011;8756;49.29324300;8.70599800;2022-09-01T06:50:54;17.37;;;9.00;;
5847;SDS011;8756;49.29324300;8.70599800;2022-09-01T06:53:24;19.00;;;10.37;;
5847;SDS011;8756;49.29324300;8.70599800;2022-09-01T06:55:49;20.50;;;11.43;;
5847;SDS011;8756;49.29324300;8.70599800;2022-09-01T06:58:16;21.50;;;12.70;;
5847;SDS011;8756;49.29324300;8.70599800;2022-09-01T07:00:42;24.80;;;14.10;;
5847;SDS011;8756;49.29324300;8.70599800;2022-09-01T07:03:08;30.77;;;14.43;;
5847;SDS011;8756;49.29324300;8.70599800;2022-09-01T07:05:38;25.20;;;14.50;;
5847;SDS011;8756;49.29324300;8.70599800;2022-09-01T07:08:06;25.80;;;15.53;;
5847;SDS011;8756;49.29324300;8.70599800;2022-09-01T07:10:38;23.67;;;14.37;;
5847;SDS011;8756;49.29324300;8.70599800;2022-09-01T07:13:13;24.73;;;15.00;;
5847;SDS011;8756;49.29324300;8.70599800;2022-09-01T07:15:47;24.87;;;14.77;;
5847;SDS011;8756;49.29324300;8.70599800;2022-09-01T07:18:15;23.87;;;13.30;;
5847;SDS011;8756;49.29324300;8.70599800;2022-09-01T07:20:41;24.40;;;13.40;;
5847;SDS011;8756;49.29324300;8.70599800;2022-09-01T07:23:08;25.40;;;13.73;;
5847;SDS011;8756;49.29324300;8.70599800;2022-09-01T07:25:38;23.77;;;12.90;;
5847;SDS011;8756;49.29324300;8.70599800;2022-09-01T07:28:07;23.37;;;13.60;;
5847;SDS011;8756;49.29324300;8.70599800;2022-09-01T07:30:38;24.50;;;15.23;;
5847;SDS011;8756;49.29324300;8.70599800;2022-09-01T07:33:12;23.00;;;12.73;;
5847;SDS011;8756;49.29324300;8.70599800;2022-09-01T07:35:41;21.70;;;12.87;;
5847;SDS011;8756;49.29324300;8.70599800;2022-09-01T07:38:07;22.90;;;11.90;;
5847;SDS011;8756;49.29324300;8.70599800;2022-09-01T07:40:37;23.37;;;12.10;;
5847;SDS011;8756;49.29324300;8.70599800;2022-09-01T07:43:06;21.93;;;12.70;;
5847;SDS011;8756;49.29324300;8.70599800;2022-09-01T07:45:38;23.17;;;12.90;;
5847;SDS011;8756;49.29324300;8.70599800;2022-09-01T07:48:09;20.80;;;12.20;;
5847;SDS011;8756;49.29324300;8.70599800;2022-09-01T07:50:35;22.97;;;12.60;;
5847;SDS011;8756;49.29324300;8.70599800;2022-09-01T07:53:07;21.50;;;12.87;;
5847;SDS011;8756;49.29324300;8.70599800;2022-09-01T07:55:33;21.93;;;12.43;;
5847;SDS011;8756;49.29324300;8.70599800;2022-09-01T07:57:58;24.50;;;12.70;;
5847;SDS011;8756;49.29324300;8.70599800;2022-09-01T08:00:24;22.70;;;12.80;;
5847;SDS011;8756;49.29324300;8.70599800;2022-09-01T08:02:51;20.03;;;11.33;;
5847;SDS011;8756;49.29324300;8.70599800;2022-09-01T08:05:17;21.53;;;12.23;;
5847;SDS011;8756;49.29324300;8.70599800;2022-09-01T08:07:46;21.37;;;12.00;;
5847;SDS011;8756;49.29324300;8.70599800;2022-09-01T08:10:13;23.87;;;11.70;;
5847;SDS011;8756;49.29324300;8.70599800;2022-09-01T08:12:39;21.00;;;11.73;;
5847;SDS011;8756;49.29324300;8.70599800;2022-09-01T08:15:08;21.10;;;11.17;;
5847;SDS011;8756;49.29324300;8.70599800;2022-09-01T08:17:36;20.80;;;11.40;;
5847;SDS011;8756;49.29324300;8.70599800;2022-09-01T08:20:02;20.67;;;10.87;;
5847;SDS011;8756;49.29324300;8.70599800;2022-09-01T08:22:32;18.00;;;9.60;;
5847;SDS011;8756;49.29324300;8.70599800;2022-09-01T08:24:57;18.53;;;10.00;;
5847;SDS011;8756;49.29324300;8.70599800;2022-09-01T08:27:23;19.27;;;10.53;;
5847;SDS011;8756;49.29324300;8.70599800;2022-09-01T08:29:49;20.43;;;10.30;;
5847;SDS011;8756;49.29324300;8.70599800;2022-09-01T08:32:14;17.73;;;10.30;;
5847;SDS011;8756;49.29324300;8.70599800;2022-09-01T08:34:40;18.53;;;10.00;;
5847;SDS011;8756;49.29324300;8.70599800;2022-09-01T08:37:07;17.30;;;8.67;;
5847;SDS011;8756;49.29324300;8.70599800;2022-09-01T08:39:33;17.43;;;8.70;;
5847;SDS011;8756;49.29324300;8.70599800;2022-09-01T08:47:11;16.80;;;9.10;;
5847;SDS011;8756;49.29324300;8.70599800;2022-09-01T08:49:40;19.03;;;10.07;;
5847;SDS011;8756;49.29324300;8.70599800;2022-09-01T08:55:06;23.93;;;9.33;;
5847;SDS011;8756;49.29324300;8.70599800;2022-09-01T08:57:41;15.00;;;7.80;;
5847;SDS011;8756;49.29324300;8.70599800;2022-09-01T09:00:10;15.47;;;7.60;;
5847;SDS011;8756;49.29324300;8.70599800;2022-09-01T09:02:50;16.30;;;7.67;;
5847;SDS011;8756;49.29324300;8.70599800;2022-09-01T09:08:06;16.70;;;7.60;;
5847;SDS011;8756;49.29324300;8.70599800;2022-09-01T09:13:56;15.30;;;7.67;;
5847;SDS011;8756;49.29324300;8.70599800;2022-09-01T09:16:45;17.60;;;7.30;;
5847;SDS011;8756;49.29324300;8.70599800;2022-09-01T09:22:00;15.07;;;7.57;;
5847;SDS011;8756;49.29324300;8.70599800;2022-09-01T09:24:30;14.93;;;7.50;;
5847;SDS011;8756;49.29324300;8.70599800;2022-09-01T09:29:57;17.70;;;7.50;;
5847;SDS011;8756;49.29324300;8.70599800;2022-09-01T09:35:37;14.97;;;6.93;;
5847;SDS011;8756;49.29324300;8.70599800;2022-09-01T09:40:55;15.50;;;6.50;;
5847;SDS011;8756;49.29324300;8.70599800;2022-09-01T09:43:28;15.17;;;7.07;;
5847;SDS011;8756;49.29324300;8.70599800;2022-09-01T09:49:19;15.97;;;7.80;;
5847;SDS011;8756;49.29324300;8.70599800;2022-09-01T09:51:50;14.37;;;6.20;;
5847;SDS011;8756;49.29324300;8.70599800;2022-09-01T09:54:26;14.73;;;5.93;;
5847;SDS011;8756;49.29324300;8.70599800;2022-09-01T09:57:13;14.50;;;6.53;;
5847;SDS011;8756;49.29324300;8.70599800;2022-09-01T09:59:43;17.10;;;7.07;;
5847;SDS011;8756;49.29324300;8.70599800;2022-09-01T10:04:56;14.80;;;6.33;;
5847;SDS011;8756;49.29324300;8.70599800;2022-09-01T10:07:35;14.43;;;6.20;;
5847;SDS011;8756;49.29324300;8.70599800;2022-09-01T10:10:06;13.63;;;5.20;;
5847;SDS011;8756;49.29324300;8.70599800;2022-09-01T10:12:51;16.87;;;5.70;;
5847;SDS011;8756;49.29324300;8.70599800;2022-09-01T10:15:21;12.30;;;4.97;;
5847;SDS011;8756;49.29324300;8.70599800;2022-09-01T10:17:48;13.70;;;5.43;;
5847;SDS011;8756;49.29324300;8.70599800;2022-09-01T10:20:22;12.97;;;5.87;;
5847;SDS011;8756;49.29324300;8.70599800;2022-09-01T10:22:49;13.53;;;5.50;;
5847;SDS011;8756;49.29324300;8.70599800;2022-09-01T10:25:17;14.47;;;5.43;;
5847;SDS011;8756;49.29324300;8.70599800;2022-09-01T10:27:54;13.00;;;6.00;;
5847;SDS011;8756;49.29324300;8.70599800;2022-09-01T10:30:23;13.50;;;4.77;;
5847;SDS011;8756;49.29324300;8.70599800;2022-09-01T10:32:51;15.20;;;5.80;;
5847;SDS011;8756;49.29324300;8.70599800;2022-09-01T10:35:21;13.30;;;5.20;;
5847;SDS011;8756;49.29324300;8.70599800;2022-09-01T10:37:48;12.87;;;5.13;;
5847;SDS011;8756;49.29324300;8.70599800;2022-09-01T10:42:48;12.37;;;5.37;;
5847;SDS011;8756;49.29324300;8.70599800;2022-09-01T10:45:39;12.40;;;5.30;;
5847;SDS011;8756;49.29324300;8.70599800;2022-09-01T10:50:49;12.50;;;5.03;;
5847;SDS011;8756;49.29324300;8.70599800;2022-09-01T10:56:02;12.40;;;4.73;;
5847;SDS011;8756;49.29324300;8.70599800;2022-09-01T10:58:44;12.73;;;5.07;;
5847;SDS011;8756;49.29324300;8.70599800;2022-09-01T11:02:02;12.20;;;4.70;;
5847;SDS011;8756;49.29324300;8.70599800;2022-09-01T11:07:04;12.23;;;4.50;;
5847;SDS011;8756;49.29324300;8.70599800;2022-09-01T11:15:34;13.00;;;5.37;;
5847;SDS011;8756;49.29324300;8.70599800;2022-09-01T11:18:02;12.23;;;5.00;;
5847;SDS011;8756;49.29324300;8.70599800;2022-09-01T11:20:39;12.47;;;4.73;;
5847;SDS011;8756;49.29324300;8.70599800;2022-09-01T11:23:09;11.90;;;4.40;;
5847;SDS011;8756;49.29324300;8.70599800;2022-09-01T11:25:56;12.10;;;4.73;;
5847;SDS011;8756;49.29324300;8.70599800;2022-09-01T11:30:56;13.23;;;5.40;;
5847;SDS011;8756;49.29324300;8.70599800;2022-09-01T11:36:36;12.90;;;5.07;;
5847;SDS011;8756;49.29324300;8.70599800;2022-09-01T11:41:57;12.10;;;4.83;;
5847;SDS011;8756;49.29324300;8.70599800;2022-09-01T11:47:16;13.20;;;4.73;;
5847;SDS011;8756;49.29324300;8.70599800;2022-09-01T11:49:54;16.80;;;4.73;;
5847;SDS011;8756;49.29324300;8.70599800;2022-09-01T11:52:27;13.13;;;5.47;;
5847;SDS011;8756;49.29324300;8.70599800;2022-09-01T11:54:56;13.40;;;5.33;;
5847;SDS011;8756;49.29324300;8.70599800;2022-09-01T11:57:24;12.57;;;5.00;;
5847;SDS011;8756;49.29324300;8.70599800;2022-09-01T11:59:53;15.03;;;4.70;;
5847;SDS011;8756;49.29324300;8.70599800;2022-09-01T12:02:19;12.23;;;4.80;;
5847;SDS011;8756;49.29324300;8.70599800;2022-09-01T12:04:52;12.27;;;4.80;;
5847;SDS011;8756;49.29324300;8.70599800;2022-09-01T12:07:36;12.10;;;4.90;;
5847;SDS011;8756;49.29324300;8.70599800;2022-09-01T12:10:13;13.33;;;5.27;;
5847;SDS011;8756;49.29324300;8.70599800;2022-09-01T12:12:39;13.47;;;4.90;;
5847;SDS011;8756;49.29324300;8.70599800;2022-09-01T12:15:19;12.00;;;4.47;;
5847;SDS011;8756;49.29324300;8.70599800;2022-09-01T12:17:46;14.43;;;5.53;;
5847;SDS011;8756;49.29324300;8.70599800;2022-09-01T12:20:26;15.37;;;5.07;;
5847;SDS011;8756;49.29324300;8.70599800;2022-09-01T12:22:59;11.70;;;4.57;;
5847;SDS011;8756;49.29324300;8.70599800;2022-09-01T12:25:30;13.67;;;4.87;;
5847;SDS011;8756;49.29324300;8.70599800;2022-09-01T12:28:01;12.40;;;4.60;;
5847;SDS011;8756;49.29324300;8.70599800;2022-09-01T12:30:29;12.00;;;4.37;;
5847;SDS011;8756;49.29324300;8.70599800;2022-09-01T12:32:59;13.20;;;4.57;;
5847;SDS011;8756;49.29324300;8.70599800;2022-09-01T12:35:27;12.67;;;4.43;;
5847;SDS011;8756;49.29324300;8.70599800;2022-09-01T12:38:15;12.60;;;4.80;;
5847;SDS011;8756;49.29324300;8.70599800;2022-09-01T12:40:54;14.13;;;4.90;;
5847;SDS011;8756;49.29324300;8.70599800;2022-09-01T12:45:55;12.23;;;4.33;;
5847;SDS011;8756;49.29324300;8.70599800;2022-09-01T12:48:26;12.80;;;5.40;;
5847;SDS011;8756;49.29324300;8.70599800;2022-09-01T12:50:59;11.90;;;4.30;;
5847;SDS011;8756;49.29324300;8.70599800;2022-09-01T12:53:50;11.70;;;4.20;;
5847;SDS011;8756;49.29324300;8.70599800;2022-09-01T12:56:39;12.80;;;3.80;;
5847;SDS011;8756;49.29324300;8.70599800;2022-09-01T12:59:05;15.63;;;4.33;;
5847;SDS011;8756;49.29324300;8.70599800;2022-09-01T13:01:34;11.80;;;4.97;;
5847;SDS011;8756;49.29324300;8.70599800;2022-09-01T13:04:19;12.47;;;3.90;;
5847;SDS011;8756;49.29324300;8.70599800;2022-09-01T13:06:49;14.43;;;4.93;;
5847;SDS011;8756;49.29324300;8.70599800;2022-09-01T13:09:16;12.80;;;4.80;;
5847;SDS011;8756;49.29324300;8.70599800;2022-09-01T13:11:42;12.83;;;4.13;;
5847;SDS011;8756;49.29324300;8.70599800;2022-09-01T13:14:11;12.30;;;4.50;;
5847;SDS011;8756;49.29324300;8.70599800;2022-09-01T13:16:38;12.20;;;4.03;;
5847;SDS011;8756;49.29324300;8.70599800;2022-09-01T13:19:04;13.73;;;4.80;;
5847;SDS011;8756;49.29324300;8.70599800;2022-09-01T13:21:30;12.10;;;4.23;;
5847;SDS011;8756;49.29324300;8.70599800;2022-09-01T13:23:58;12.47;;;4.30;;
5847;SDS011;8756;49.29324300;8.70599800;2022-09-01T13:26:25;14.50;;;4.40;;
5847;SDS011;8756;49.29324300;8.70599800;2022-09-01T13:28:51;11.07;;;4.07;;
5847;SDS011;8756;49.29324300;8.70599800;2022-09-01T13:31:17;12.17;;;3.90;;
5847;SDS011;8756;49.29324300;8.70599800;2022-09-01T13:33:43;11.50;;;4.30;;
5847;SDS011;8756;49.29324300;8.70599800;2022-09-01T13:36:09;12.50;;;4.50;;
5847;SDS011;8756;49.29324300;8.70599800;2022-09-01T13:38:34;13.67;;;4.53;;
5847;SDS011;8756;49.29324300;8.70599800;2022-09-01T13:41:00;12.63;;;4.60;;
5847;SDS011;8756;49.29324300;8.70599800;2022-09-01T13:43:26;11.90;;;4.30;;
5847;SDS011;8756;49.29324300;8.70599800;2022-09-01T13:45:52;12.33;;;4.00;;
5847;SDS011;8756;49.29324300;8.70599800;2022-09-01T13:48:18;12.97;;;4.63;;
5847;SDS011;8756;49.29324300;8.70599800;2022-09-01T13:50:46;11.27;;;3.87;;
5847;SDS011;8756;49.29324300;8.70599800;2022-09-01T13:53:14;15.30;;;4.47;;
5847;SDS011;8756;49.29324300;8.70599800;2022-09-01T13:55:40;12.70;;;4.00;;
5847;SDS011;8756;49.29324300;8.70599800;2022-09-01T13:58:06;11.77;;;3.77;;
5847;SDS011;8756;49.29324300;8.70599800;2022-09-01T14:00:34;11.30;;;4.07;;
5847;SDS011;8756;49.29324300;8.70599800;2022-09-01T14:03:05;13.10;;;4.00;;
5847;SDS011;8756;49.29324300;8.70599800;2022-09-01T14:05:36;11.70;;;3.70;;
5847;SDS011;8756;49.29324300;8.70599800;2022-09-01T14:08:04;12.83;;;3.90;;
5847;SDS011;8756;49.29324300;8.70599800;2022-09-01T14:10:31;11.60;;;4.13;;
5847;SDS011;8756;49.29324300;8.70599800;2022-09-01T14:13:05;13.17;;;4.10;;
5847;SDS011;8756;49.29324300;8.70599800;2022-09-01T14:15:32;13.53;;;4.20;;
5847;SDS011;8756;49.29324300;8.70599800;2022-09-01T14:17:58;11.00;;;3.43;;
5847;SDS011;8756;49.29324300;8.70599800;2022-09-01T14:20:29;11.87;;;3.10;;
5847;SDS011;8756;49.29324300;8.70599800;2022-09-01T14:22:56;10.90;;;3.63;;